Time;durP1;ratioP1;P1;durP2;ratioP2;P2;SDS_P1;SDS_P2;PMS_P1;PMS_P2;Temp;Humidity;BMP_temperature;BMP_pressure;BME280_temperature;BME280_humidity;BME280_pressure;Samples;Min_cycle;Max_cycle;Signal;HPM_P1;HPM_P2
2021/04/23 00:01:28;;;;;;;0.32;0.32;;;7.10;99.90;;;;;;4979631;28;20195;-68
2021/04/23 00:04:05;;;;;;;3.00;1.02;;;7.20;99.90;;;;;;4990731;28;20167;-69
2021/04/23 00:06:37;;;;;;;0.68;0.68;;;7.00;99.90;;;;;;4989123;28;20206;-68
2021/04/23 00:09:10;;;;;;;0.50;0.40;;;6.90;99.90;;;;;;4990354;28;20531;-69
2021/04/23 00:11:55;;;;;;;0.30;0.30;;;6.90;99.90;;;;;;4990271;28;20310;-69
2021/04/23 00:14:23;;;;;;;0.70;0.70;;;6.90;99.90;;;;;;4988898;28;20228;-68
2021/04/23 00:16:51;;;;;;;0.70;0.70;;;6.90;99.90;;;;;;4988840;28;20183;-68
2021/04/23 00:19:21;;;;;;;0.93;0.73;;;7.10;99.90;;;;;;4963079;28;742135;-68
2021/04/23 00:21:49;;;;;;;0.77;0.50;;;7.10;99.90;;;;;;4989758;28;20218;-68
2021/04/23 00:24:16;;;;;;;0.82;0.82;;;7.20;99.90;;;;;;4989685;28;20175;-69
2021/04/23 00:26:43;;;;;;;0.73;0.55;;;7.10;99.90;;;;;;4991062;28;20159;-68
2021/04/23 00:29:09;;;;;;;1.42;1.35;;;6.90;99.90;;;;;;4991057;28;20202;-67
2021/04/23 00:31:39;;;;;;;0.95;0.95;;;6.90;99.90;;;;;;4990833;28;20218;-67
2021/04/23 00:34:05;;;;;;;0.20;0.20;;;6.90;99.90;;;;;;4989345;28;20175;-68
2021/04/23 00:36:31;;;;;;;0.47;0.47;;;6.90;99.90;;;;;;4990693;28;20270;-68
2021/04/23 00:38:58;;;;;;;5.22;2.80;;;7.10;99.90;;;;;;4990796;28;20168;-68
2021/04/23 00:41:28;;;;;;;0.85;0.85;;;7.20;99.90;;;;;;4989239;28;20226;-68
2021/04/23 00:43:57;;;;;;;0.93;0.93;;;7.30;99.90;;;;;;4989402;28;20214;-68
2021/04/23 00:46:29;;;;;;;1.90;1.80;;;7.30;99.90;;;;;;4990698;28;20225;-69
2021/04/23 00:48:56;;;;;;;2.92;1.80;;;7.30;99.90;;;;;;4989118;28;20167;-69
2021/04/23 00:51:30;;;;;;;0.85;0.85;;;7.00;99.90;;;;;;4976591;28;20202;-69
2021/04/23 00:53:58;;;;;;;0.65;0.65;;;6.80;99.90;;;;;;4971038;28;20622;-68
2021/04/23 00:56:30;;;;;;;0.22;0.22;;;6.70;99.90;;;;;;4975814;28;20195;-69
2021/04/23 00:58:57;;;;;;;2.92;1.15;;;6.60;99.90;;;;;;4988412;28;20171;-69
2021/04/23 01:01:37;;;;;;;0.43;0.43;;;6.70;99.90;;;;;;4988843;28;20334;-69
2021/04/23 01:04:11;;;;;;;0.88;0.88;;;6.80;99.90;;;;;;4990481;28;20247;-69
2021/04/23 01:06:37;;;;;;;1.35;1.30;;;6.80;99.90;;;;;;4990438;28;20250;-68
2021/04/23 01:09:18;;;;;;;2.05;1.33;;;6.80;99.90;;;;;;4990272;28;20159;-68
2021/04/23 01:11:46;;;;;;;1.30;1.15;;;6.70;99.90;;;;;;4988709;28;20230;-68
2021/04/23 01:14:12;;;;;;;1.52;1.52;;;6.60;99.90;;;;;;4990150;28;20166;-69
2021/04/23 01:16:40;;;;;;;0.88;0.60;;;6.50;99.90;;;;;;4990182;28;20187;-69
2021/04/23 01:19:09;;;;;;;1.55;1.45;;;6.50;99.90;;;;;;4990138;28;20156;-69
2021/04/23 01:21:37;;;;;;;1.48;1.38;;;6.50;99.90;;;;;;4989880;28;20637;-68
2021/04/23 01:24:05;;;;;;;1.15;0.82;;;6.40;99.90;;;;;;4989971;28;20187;-68
2021/04/23 01:26:47;;;;;;;1.20;1.10;;;6.30;99.90;;;;;;4989901;28;20289;-69
2021/04/23 01:29:14;;;;;;;0.60;0.60;;;6.00;99.90;;;;;;4989888;28;20191;-67
2021/04/23 01:31:43;;;;;;;1.08;0.60;;;5.90;99.90;;;;;;4989871;28;20207;-67
2021/04/23 01:34:26;;;;;;;1.65;1.55;;;5.90;99.90;;;;;;4989792;28;20167;-69
2021/04/23 01:36:53;;;;;;;1.85;1.75;;;5.80;99.90;;;;;;4989926;28;20220;-68
2021/04/23 01:39:24;;;;;;;0.35;0.35;;;5.70;99.90;;;;;;4989826;28;20490;-68
2021/04/23 01:41:53;;;;;;;0.40;0.40;;;5.60;99.90;;;;;;4988378;28;20195;-69
2021/04/23 01:44:20;;;;;;;0.45;0.45;;;5.70;99.90;;;;;;4989638;28;20155;-69
2021/04/23 01:46:47;;;;;;;1.27;1.17;;;5.60;99.90;;;;;;4989652;28;20195;-68
2021/04/23 01:49:16;;;;;;;0.88;0.88;;;5.50;99.90;;;;;;4989554;28;20519;-67
2021/04/23 01:51:47;;;;;;;2.47;1.48;;;5.50;99.90;;;;;;4974358;28;20227;-69
2021/04/23 01:54:15;;;;;;;1.13;1.13;;;5.50;99.90;;;;;;4970774;28;20161;-68
2021/04/23 01:56:42;;;;;;;0.60;0.60;;;5.40;99.90;;;;;;4978034;28;20195;-68
2021/04/23 01:59:09;;;;;;;0.70;0.70;;;5.40;99.90;;;;;;4989844;28;20166;-67
2021/04/23 02:01:36;;;;;;;1.75;1.65;;;5.30;99.90;;;;;;4973636;28;20200;-69
2021/04/23 02:04:05;;;;;;;1.00;1.00;;;5.20;99.90;;;;;;4968345;28;20206;-68
2021/04/23 02:06:31;;;;;;;0.38;0.38;;;5.10;99.90;;;;;;4967387;28;20183;-68
2021/04/23 02:08:57;;;;;;;0.30;0.30;;;5.00;99.90;;;;;;4966566;28;20627;-67
2021/04/23 02:11:26;;;;;;;1.85;1.75;;;5.00;99.90;;;;;;4967817;28;20168;-68
2021/04/23 02:13:55;;;;;;;0.73;0.73;;;5.00;99.90;;;;;;4969630;28;20196;-67
2021/04/23 02:16:21;;;;;;;1.73;1.63;;;5.00;99.90;;;;;;4969606;28;20528;-68
2021/04/23 02:18:48;;;;;;;0.95;0.95;;;5.00;99.90;;;;;;4968350;28;20172;-69
2021/04/23 02:21:14;;;;;;;0.75;0.55;;;5.20;99.90;;;;;;4969626;28;20223;-68
2021/04/23 02:23:42;;;;;;;0.55;0.55;;;5.20;99.90;;;;;;4968599;29;20192;-69
2021/04/23 02:26:09;;;;;;;1.38;1.27;;;5.10;99.90;;;;;;4969891;28;20194;-69
2021/04/23 02:28:35;;;;;;;1.20;1.15;;;5.10;99.90;;;;;;4969900;28;20160;-69
2021/04/23 02:31:08;;;;;;;0.30;0.30;;;5.20;99.90;;;;;;4969801;28;20159;-68
2021/04/23 02:33:35;;;;;;;1.38;1.38;;;5.20;99.90;;;;;;4969807;28;20196;-71
2021/04/23 02:36:01;;;;;;;0.22;0.22;;;5.10;99.90;;;;;;4968312;28;20207;-69
2021/04/23 02:38:28;;;;;;;0.65;0.45;;;5.00;99.90;;;;;;4968486;28;20191;-68
2021/04/23 02:40:56;;;;;;;0.82;0.82;;;5.00;99.90;;;;;;4968569;28;20263;-68
2021/04/23 02:43:30;;;;;;;0.30;0.30;;;4.90;99.90;;;;;;4968224;29;20632;-68
2021/04/23 02:45:58;;;;;;;0.90;0.90;;;4.70;99.90;;;;;;4969839;28;20164;-67
2021/04/23 02:48:26;;;;;;;2.58;0.85;;;4.60;99.90;;;;;;4968274;29;20204;-69
2021/04/23 02:50:58;;;;;;;6.30;1.00;;;4.70;99.90;;;;;;4968444;29;20179;-68
2021/04/23 02:53:24;;;;;;;0.32;0.32;;;4.70;99.90;;;;;;4969649;28;20192;-68
2021/04/23 02:55:51;;;;;;;0.57;0.57;;;4.70;99.90;;;;;;4969547;28;20219;-70
2021/04/23 02:58:20;;;;;;;0.38;0.38;;;4.60;99.90;;;;;;4969487;28;20220;-69
2021/04/23 03:01:12;;;;;;;1.08;0.38;;;4.60;99.90;;;;;;4969148;28;20156;-69
2021/04/23 03:03:39;;;;;;;0.32;0.32;;;4.50;99.90;;;;;;4969018;28;20188;-69
2021/04/23 03:06:09;;;;;;;0.57;0.57;;;4.40;99.90;;;;;;4969198;28;20203;-69
2021/04/23 03:08:35;;;;;;;0.88;0.88;;;4.40;99.90;;;;;;4969132;28;20165;-70
2021/04/23 03:11:11;;;;;;;2.72;1.40;;;4.50;99.90;;;;;;4969559;28;20196;-68
2021/04/23 03:13:40;;;;;;;2.70;1.55;;;4.40;99.90;;;;;;4968648;28;20198;-69
2021/04/23 03:16:08;;;;;;;0.25;0.25;;;4.30;99.90;;;;;;4969072;28;20219;-68
2021/04/23 03:18:36;;;;;;;0.43;0.43;;;4.20;99.90;;;;;;4969223;28;20159;-70
2021/04/23 03:21:04;;;;;;;0.45;0.45;;;4.30;99.90;;;;;;4970280;28;20226;-68
2021/04/23 03:23:30;;;;;;;1.40;0.50;;;4.20;99.90;;;;;;4972577;28;20264;-69
2021/04/23 03:25:59;;;;;;;0.65;0.63;;;4.20;99.90;;;;;;4972766;28;20182;-69
2021/04/23 03:28:26;;;;;;;0.95;0.95;;;4.20;99.90;;;;;;4972627;28;20160;-68
2021/04/23 03:30:54;;;;;;;1.35;1.25;;;4.10;99.90;;;;;;4972418;28;20164;-68
2021/04/23 03:33:19;;;;;;;0.43;0.43;;;4.10;99.90;;;;;;4972375;28;20206;-69
2021/04/23 03:35:50;;;;;;;0.40;0.40;;;4.10;99.90;;;;;;4972312;28;20188;-69
2021/04/23 03:38:18;;;;;;;0.63;0.63;;;4.10;99.90;;;;;;4972700;28;20166;-68
2021/04/23 03:40:45;;;;;;;0.40;0.40;;;3.90;99.90;;;;;;4971033;29;20176;-68
2021/04/23 03:43:11;;;;;;;0.57;0.57;;;3.80;99.90;;;;;;4972726;28;20220;-70
2021/04/23 03:45:38;;;;;;;0.20;0.20;;;3.80;99.90;;;;;;4972358;28;20192;-70
2021/04/23 03:48:06;;;;;;;1.80;1.20;;;3.60;99.90;;;;;;4972293;28;20168;-68
2021/04/23 03:50:33;;;;;;;0.80;0.80;;;3.60;99.90;;;;;;4972059;28;20164;-69
2021/04/23 03:53:03;;;;;;;1.13;1.10;;;3.50;99.90;;;;;;4971873;28;20257;-69
2021/04/23 03:55:33;;;;;;;1.10;0.70;;;3.60;99.90;;;;;;4970538;28;20207;-68
2021/04/23 03:58:00;;;;;;;0.20;0.20;;;3.60;99.90;;;;;;4972134;28;20168;-68
2021/04/23 04:00:39;;;;;;;0.90;0.90;;;3.60;99.90;;;;;;4972031;28;20170;-70
2021/04/23 04:03:06;;;;;;;0.77;0.75;;;3.90;99.90;;;;;;4970186;29;20195;-68
2021/04/23 04:05:33;;;;;;;1.38;1.38;;;3.90;99.90;;;;;;4971814;28;20171;-69
2021/04/23 04:07:59;;;;;;;1.00;0.77;;;3.90;99.90;;;;;;4970465;28;20214;-68
2021/04/23 04:10:25;;;;;;;1.65;0.90;;;3.80;99.90;;;;;;4971599;28;20221;-69
2021/04/23 04:12:51;;;;;;;1.77;1.65;;;3.90;99.90;;;;;;4971780;29;20192;-67
2021/04/23 04:15:18;;;;;;;0.63;0.63;;;4.00;99.90;;;;;;4971769;28;20211;-68
2021/04/23 04:17:44;;;;;;;0.57;0.57;;;4.00;99.90;;;;;;4971826;28;20244;-69
2021/04/23 04:20:12;;;;;;;0.55;0.55;;;4.10;99.90;;;;;;4971618;28;20299;-67
2021/04/23 04:22:39;;;;;;;1.10;1.10;;;4.20;99.90;;;;;;4971663;28;20260;-68
2021/04/23 04:25:08;;;;;;;1.08;1.08;;;4.30;99.90;;;;;;4970106;29;20183;-68
2021/04/23 04:27:35;;;;;;;0.57;0.47;;;4.30;99.90;;;;;;4971529;28;20161;-67
2021/04/23 04:30:00;;;;;;;0.82;0.82;;;4.40;99.90;;;;;;4970243;29;20211;-67
2021/04/23 04:32:26;;;;;;;0.60;0.60;;;4.40;99.90;;;;;;4970440;28;20195;-67
2021/04/23 04:34:52;;;;;;;0.30;0.30;;;4.40;99.90;;;;;;4971204;28;20756;-68
2021/04/23 04:37:18;;;;;;;1.02;1.00;;;4.60;99.90;;;;;;4969699;28;20172;-69
2021/04/23 04:39:44;;;;;;;0.40;0.40;;;4.90;99.90;;;;;;4971261;28;20201;-68
2021/04/23 04:42:10;;;;;;;0.57;0.57;;;5.30;99.90;;;;;;4970980;28;20199;-68
2021/04/23 04:44:36;;;;;;;0.20;0.20;;;5.60;99.90;;;;;;4969940;29;20206;-68
2021/04/23 04:47:03;;;;;;;0.85;0.85;;;5.90;99.90;;;;;;4969754;29;20176;-67
2021/04/23 04:49:29;;;;;;;1.23;1.13;;;6.40;99.90;;;;;;4969985;28;20207;-68
2021/04/23 04:51:56;;;;;;;0.15;0.15;;;6.70;99.90;;;;;;4970850;28;20247;-68
2021/04/23 04:54:22;;;;;;;0.15;0.15;;;6.80;99.90;;;;;;4969451;28;20176;-68
2021/04/23 04:56:47;;;;;;;0.30;0.30;;;7.00;99.90;;;;;;4970883;28;20199;-68
2021/04/23 04:59:13;;;;;;;0.43;0.43;;;7.10;99.90;;;;;;4970950;28;20161;-68
2021/04/23 05:01:39;;;;;;;0.50;0.50;;;7.30;99.90;;;;;;4970832;28;20188;-68
2021/04/23 05:04:05;;;;;;;5.13;1.42;;;7.80;99.90;;;;;;4970830;28;20192;-68
2021/04/23 05:06:32;;;;;;;0.22;0.22;;;8.10;99.90;;;;;;4970802;28;20187;-68
2021/04/23 05:08:58;;;;;;;1.67;1.58;;;8.80;99.90;;;;;;4969720;28;20184;-68
2021/04/23 05:11:24;;;;;;;1.23;1.13;;;9.10;99.90;;;;;;4970753;28;20260;-68
2021/04/23 05:13:50;;;;;;;0.85;0.60;;;9.00;99.90;;;;;;4970270;28;20200;-68
2021/04/23 05:16:17;;;;;;;1.08;1.08;;;8.90;99.90;;;;;;4970689;28;20192;-69
2021/04/23 05:18:43;;;;;;;0.20;0.20;;;8.80;99.90;;;;;;4970352;28;20239;-68
2021/04/23 05:21:09;;;;;;;1.05;1.05;;;9.10;99.90;;;;;;4970461;28;20227;-68
2021/04/23 05:23:35;;;;;;;0.75;0.75;;;9.60;99.90;;;;;;4970258;28;20200;-68
2021/04/23 05:26:01;;;;;;;0.60;0.60;;;10.50;99.90;;;;;;4970072;28;20182;-69
2021/04/23 05:28:27;;;;;;;1.25;0.70;;;11.40;99.90;;;;;;4969746;28;20243;-68
2021/04/23 05:30:53;;;;;;;1.38;1.23;;;11.90;99.90;;;;;;4968738;28;20193;-67
2021/04/23 05:33:19;;;;;;;1.35;1.35;;;12.20;99.90;;;;;;4968758;28;20227;-69
2021/04/23 05:35:45;;;;;;;1.02;1.02;;;12.60;99.90;;;;;;4968542;28;20214;-69
2021/04/23 05:38:12;;;;;;;0.45;0.45;;;13.20;99.90;;;;;;4970128;28;20160;-68
2021/04/23 05:40:43;;;;;;;1.08;0.98;;;13.50;99.90;;;;;;4970048;28;20164;-68
2021/04/23 05:43:10;;;;;;;0.73;0.73;;;14.40;99.90;;;;;;4969692;28;20196;-68
2021/04/23 05:45:40;;;;;;;2.30;1.83;;;14.60;99.90;;;;;;4970122;28;20167;-68
2021/04/23 05:48:08;;;;;;;1.02;0.93;;;14.30;99.90;;;;;;4969751;28;20171;-68
2021/04/23 05:50:36;;;;;;;0.55;0.55;;;14.30;99.90;;;;;;4969917;28;20297;-68
2021/04/23 05:53:03;;;;;;;1.17;1.13;;;14.70;99.90;;;;;;4969604;28;20223;-68
2021/04/23 05:55:30;;;;;;;0.32;0.32;;;15.00;99.90;;;;;;4969725;28;20192;-69
2021/04/23 05:57:59;;;;;;;1.08;1.02;;;15.90;99.90;;;;;;4970057;28;20168;-69
2021/04/23 06:00:27;;;;;;;2.10;1.70;;;16.50;99.90;;;;;;4968623;29;20292;-68
2021/04/23 06:02:54;;;;;;;5.47;1.55;;;16.40;99.90;;;;;;4969631;28;20195;-69
2021/04/23 06:05:22;;;;;;;0.50;0.50;;;15.90;99.90;;;;;;4968325;28;20175;-67
2021/04/23 06:07:48;;;;;;;0.70;0.70;;;16.50;99.90;;;;;;4969748;28;20192;-69
2021/04/23 06:10:15;;;;;;;0.88;0.88;;;16.60;99.90;;;;;;4970284;28;20176;-69
2021/04/23 06:12:42;;;;;;;0.98;0.50;;;16.60;99.90;;;;;;4970158;28;20188;-70
2021/04/23 06:15:10;;;;;;;1.33;1.27;;;16.50;99.90;;;;;;4969550;28;20194;-67
2021/04/23 06:17:36;;;;;;;0.47;0.47;;;17.20;99.90;;;;;;4969532;28;20176;-68
2021/04/23 06:20:08;;;;;;;1.17;1.08;;;16.70;99.90;;;;;;4969208;28;20247;-69
2021/04/23 06:22:34;;;;;;;2.25;1.13;;;15.80;99.90;;;;;;4968085;28;20204;-68
2021/04/23 06:24:59;;;;;;;8.45;1.48;;;15.60;99.90;;;;;;4969553;28;20164;-68
2021/04/23 06:27:25;;;;;;;17.05;1.85;;;15.50;99.90;;;;;;4969157;28;20160;-69
2021/04/23 06:29:52;;;;;;;0.65;0.65;;;15.50;99.90;;;;;;4988193;28;20207;-69
2021/04/23 06:32:19;;;;;;;0.55;0.55;;;15.90;99.90;;;;;;4988255;28;20202;-71
2021/04/23 06:34:45;;;;;;;1.05;1.05;;;16.40;99.90;;;;;;4987761;28;20170;-69
2021/04/23 06:37:11;;;;;;;0.82;0.82;;;16.60;99.90;;;;;;4987064;28;20175;-68
2021/04/23 06:39:37;;;;;;;1.42;0.95;;;16.30;99.90;;;;;;4989381;28;20159;-67
2021/04/23 06:42:03;;;;;;;0.95;0.93;;;16.90;99.90;;;;;;4988995;28;20331;-69
2021/04/23 06:44:29;;;;;;;1.85;1.63;;;16.90;99.90;;;;;;4987217;28;20172;-70
2021/04/23 06:46:55;;;;;;;0.57;0.57;;;16.00;99.90;;;;;;4986323;28;20298;-70
2021/04/23 06:49:21;;;;;;;0.68;0.68;;;15.90;99.90;;;;;;4988748;28;20167;-70
2021/04/23 06:51:47;;;;;;;0.77;0.77;;;15.70;99.90;;;;;;4988607;28;20168;-69
2021/04/23 06:54:14;;;;;;;3.80;1.23;;;15.30;99.90;;;;;;4986920;28;20696;-70
2021/04/23 06:56:40;;;;;;;0.40;0.40;;;15.30;99.90;;;;;;4989453;28;20207;-70
2021/04/23 06:59:06;;;;;;;0.90;0.60;;;15.80;99.90;;;;;;4992226;28;20162;-70
2021/04/23 07:01:32;;;;;;;0.40;0.40;;;16.00;99.90;;;;;;4991678;28;20214;-69
2021/04/23 07:03:58;;;;;;;0.25;0.25;;;15.50;99.90;;;;;;4992099;28;20203;-70
2021/04/23 07:06:24;;;;;;;0.47;0.47;;;16.10;99.90;;;;;;4990744;28;20363;-69
2021/04/23 07:08:49;;;;;;;0.70;0.70;;;16.60;99.90;;;;;;4991047;28;20183;-72
2021/04/23 07:11:19;;;;;;;1.88;1.65;;;16.70;99.90;;;;;;4991439;28;20214;-68
2021/04/23 07:13:44;;;;;;;1.38;0.50;;;15.90;99.90;;;;;;4991049;28;20195;-69
2021/04/23 07:16:10;;;;;;;0.90;0.90;;;15.40;99.90;;;;;;4985019;28;20261;-69
2021/04/23 07:18:36;;;;;;;0.10;0.10;;;15.80;99.90;;;;;;4990396;28;20187;-67
2021/04/23 07:21:02;;;;;;;1.48;1.38;;;16.80;99.90;;;;;;4991365;28;20333;-68
2021/04/23 07:23:28;;;;;;;0.32;0.32;;;17.40;99.90;;;;;;4992265;28;20160;-67
2021/04/23 07:25:54;;;;;;;1.75;0.82;;;17.10;99.90;;;;;;4991308;28;20209;-68
2021/04/23 07:28:20;;;;;;;1.40;0.75;;;16.50;99.90;;;;;;4991775;28;20292;-68
2021/04/23 07:30:46;;;;;;;1.75;1.65;;;16.00;99.90;;;;;;4991539;28;20210;-68
2021/04/23 07:33:13;;;;;;;4.03;1.23;;;16.20;99.90;;;;;;4990413;28;20182;-69
2021/04/23 07:35:44;;;;;;;0.40;0.40;;;16.20;99.90;;;;;;4984747;28;20712;-68
2021/04/23 07:38:11;;;;;;;1.55;1.45;;;16.80;99.90;;;;;;4981985;28;20638;-68
2021/04/23 07:40:38;;;;;;;0.57;0.57;;;16.60;99.90;;;;;;4984138;28;20187;-67
2021/04/23 07:43:04;;;;;;;0.63;0.63;;;17.70;99.90;;;;;;4987458;28;20179;-70
2021/04/23 07:45:30;;;;;;;1.85;1.50;;;18.20;99.90;;;;;;4991479;28;20191;-70
2021/04/23 07:47:57;;;;;;;0.93;0.85;;;17.60;99.90;;;;;;4990293;28;20533;-71
2021/04/23 07:50:25;;;;;;;5.75;1.85;;;17.60;99.90;;;;;;4990338;28;20175;-68
2021/04/23 07:52:52;;;;;;;1.23;1.13;;;17.60;99.90;;;;;;4991562;28;20171;-70
2021/04/23 07:55:19;;;;;;;0.98;0.98;;;18.40;99.90;;;;;;4984435;28;20223;-70
2021/04/23 07:57:47;;;;;;;1.30;1.02;;;18.80;99.90;;;;;;4969387;28;20212;-68
2021/04/23 08:00:15;;;;;;;0.52;0.52;;;17.90;99.90;;;;;;4971513;28;20188;-69
2021/04/23 08:02:41;;;;;;;1.50;0.85;;;17.90;99.90;;;;;;4969223;28;20164;-68
2021/04/23 08:05:10;;;;;;;1.00;1.00;;;17.90;99.90;;;;;;4990990;28;20162;-68
2021/04/23 08:07:36;;;;;;;1.15;0.90;;;17.80;99.90;;;;;;4985918;28;20197;-68
2021/04/23 08:10:03;;;;;;;0.88;0.70;;;17.50;99.90;;;;;;4990020;28;20686;-74
2021/04/23 08:12:30;;;;;;;0.55;0.55;;;17.80;99.90;;;;;;4990792;28;20167;-74
2021/04/23 08:14:56;;;;;;;0.85;0.85;;;18.30;99.90;;;;;;4990810;28;20182;-74
2021/04/23 08:17:23;;;;;;;0.43;0.35;;;18.60;99.90;;;;;;4988936;28;20239;-74
2021/04/23 08:19:49;;;;;;;1.63;1.35;;;19.40;99.90;;;;;;4989164;28;20230;-74
2021/04/23 08:22:14;;;;;;;0.40;0.40;;;19.60;99.90;;;;;;4989299;28;20186;-74
2021/04/23 08:24:40;;;;;;;1.48;1.38;;;19.00;99.90;;;;;;4990550;28;20187;-73
2021/04/23 08:27:06;;;;;;;2.13;1.95;;;19.20;99.90;;;;;;4989892;28;20214;-75
2021/04/23 08:29:32;;;;;;;1.45;1.35;;;19.60;99.90;;;;;;4990152;28;20186;-75
2021/04/23 08:31:58;;;;;;;2.20;1.75;;;20.20;99.90;;;;;;4990454;28;20155;-75
2021/04/23 08:34:24;;;;;;;1.52;1.42;;;20.80;99.90;;;;;;4990397;28;20174;-74
2021/04/23 08:36:50;;;;;;;0.57;0.57;;;21.60;99.90;;;;;;4978782;28;20195;-74
2021/04/23 08:39:16;;;;;;;1.33;0.98;;;20.10;99.90;;;;;;4970690;28;20223;-74
2021/04/23 08:41:42;;;;;;;1.85;1.38;;;20.20;99.90;;;;;;4981602;28;20198;-74
2021/04/23 08:44:08;;;;;;;4.68;2.28;;;20.30;99.90;;;;;;4985843;28;20168;-70
2021/04/23 08:46:36;;;;;;;0.85;0.85;;;19.10;99.90;;;;;;4968930;29;20203;-74
2021/04/23 08:49:05;;;;;;;2.88;1.05;;;17.90;99.90;;;;;;4970783;28;20267;-75
2021/04/23 08:51:33;;;;;;;1.20;1.10;;;17.70;99.90;;;;;;4970362;28;20168;-74
2021/04/23 08:53:59;;;;;;;4.72;1.50;;;19.30;99.90;;;;;;4970730;28;20291;-74
2021/04/23 08:56:26;;;;;;;0.32;0.32;;;20.80;99.90;;;;;;4969762;28;20533;-72
2021/04/23 08:58:53;;;;;;;5.75;1.25;;;20.70;99.90;;;;;;4978533;28;20198;-74
2021/04/23 09:01:19;;;;;;;0.20;0.20;;;21.30;99.90;;;;;;4988143;28;20171;-74
2021/04/23 09:03:45;;;;;;;4.28;2.47;;;21.50;99.90;;;;;;4988710;28;20174;-74
2021/04/23 09:06:16;;;;;;;6.47;0.68;;;21.20;99.90;;;;;;4988125;28;20210;-74
2021/04/23 09:08:58;;;;;;;3.53;1.10;;;20.00;99.90;;;;;;4989886;28;20278;-75
2021/04/23 09:11:30;;;;;;;0.77;0.73;;;19.00;99.90;;;;;;4989044;28;20480;-75
2021/04/23 09:14:08;;;;;;;0.50;0.50;;;19.10;99.90;;;;;;4989953;28;20222;-74
2021/04/23 09:16:47;;;;;;;2.72;1.40;;;20.40;99.90;;;;;;4988409;28;20220;-74
2021/04/23 09:19:15;;;;;;;0.40;0.40;;;21.10;99.90;;;;;;4988460;28;20514;-74
2021/04/23 09:22:09;;;;;;;0.52;0.52;;;20.90;98.20;;;;;;4987954;28;20179;-74
2021/04/23 09:24:43;;;;;;;1.55;1.42;;;20.50;98.60;;;;;;4979937;28;20233;-74
2021/04/23 09:27:22;;;;;;;0.95;0.90;;;19.90;98.70;;;;;;4987851;28;20205;-74
2021/04/23 09:29:51;;;;;;;1.70;1.13;;;20.30;99.30;;;;;;4989125;28;20198;-73
2021/04/23 09:32:33;;;;;;;2.15;1.50;;;20.80;98.20;;;;;;4988512;28;20234;-73
2021/04/23 09:35:06;;;;;;;0.63;0.63;;;21.40;98.10;;;;;;4986032;28;21328;-75
2021/04/23 09:37:42;;;;;;;1.45;1.08;;;21.80;96.70;;;;;;4977286;28;20178;-74
2021/04/23 09:40:22;;;;;;;1.13;0.95;;;22.50;96.00;;;;;;4987641;28;20317;-74
2021/04/23 09:42:55;;;;;;;0.40;0.40;;;21.00;97.10;;;;;;4989230;28;20163;-75
2021/04/23 09:45:23;;;;;;;1.35;1.27;;;20.50;97.20;;;;;;4989377;28;20170;-76
2021/04/23 09:47:49;;;;;;;0.30;0.30;;;20.10;98.20;;;;;;4989365;28;20218;-76
2021/04/23 09:50:17;;;;;;;0.43;0.43;;;19.50;97.90;;;;;;4988786;28;20202;-75
2021/04/23 09:52:52;;;;;;;0.65;0.63;;;19.50;99.40;;;;;;4985656;28;20187;-76
2021/04/23 09:55:23;;;;;;;1.35;0.93;;;20.10;98.10;;;;;;4986933;28;20210;-74
2021/04/23 09:57:52;;;;;;;0.55;0.55;;;20.50;97.20;;;;;;4988909;28;20617;-74
2021/04/23 10:00:18;;;;;;;1.10;1.05;;;19.70;98.00;;;;;;4987266;28;20206;-75
2021/04/23 10:02:48;;;;;;;1.75;0.95;;;19.10;98.50;;;;;;4988747;28;20160;-76
2021/04/23 10:05:28;;;;;;;0.65;0.65;;;19.30;98.70;;;;;;4988558;28;20199;-77
2021/04/23 10:07:54;;;;;;;0.80;0.80;;;20.00;97.80;;;;;;4987289;28;20203;-72
2021/04/23 10:10:20;;;;;;;0.77;0.73;;;20.40;96.70;;;;;;4986962;28;20182;-74
2021/04/23 10:12:52;;;;;;;1.02;0.68;;;20.30;97.60;;;;;;4988773;28;20172;-73
2021/04/23 10:15:29;;;;;;;2.03;1.02;;;19.20;97.90;;;;;;4988499;28;20191;-74
2021/04/23 10:17:57;;;;;;;16.98;1.30;;;19.30;98.00;;;;;;4988461;28;20289;-75
2021/04/23 10:20:29;;;;;;;0.90;0.90;;;19.50;96.80;;;;;;4988620;28;20238;-74
2021/04/23 10:22:57;;;;;;;0.30;0.30;;;20.60;96.20;;;;;;4986980;28;20163;-74
2021/04/23 10:25:24;;;;;;;0.80;0.80;;;21.50;95.90;;;;;;4988560;28;20163;-73
2021/04/23 10:27:51;;;;;;;1.20;1.05;;;21.70;96.50;;;;;;4987242;28;20202;-74
2021/04/23 10:30:26;;;;;;;4.82;1.48;;;21.60;96.20;;;;;;4990617;28;20166;-73
2021/04/23 10:32:54;;;;;;;2.05;1.92;;;21.00;95.30;;;;;;4991189;28;20241;-73
2021/04/23 10:35:23;;;;;;;0.50;0.30;;;20.70;95.40;;;;;;4992347;28;20190;-74
2021/04/23 10:37:50;;;;;;;2.10;1.63;;;20.50;95.10;;;;;;4992199;28;20217;-74
2021/04/23 10:40:19;;;;;;;1.13;1.10;;;20.10;95.20;;;;;;4992385;28;20175;-74
2021/04/23 10:42:51;;;;;;;1.73;1.33;;;19.70;95.40;;;;;;4992558;28;20229;-75
2021/04/23 10:45:20;;;;;;;0.55;0.55;;;19.50;96.20;;;;;;4990831;28;20238;-72
2021/04/23 10:47:47;;;;;;;0.70;0.70;;;20.60;95.80;;;;;;4990836;28;20198;-74
2021/04/23 10:50:19;;;;;;;1.45;0.47;;;21.30;94.50;;;;;;4992245;28;20167;-74
2021/04/23 10:53:16;;;;;;;0.40;0.38;;;21.30;95.50;;;;;;4990861;28;20171;-75
2021/04/23 10:55:55;;;;;;;0.85;0.85;;;20.80;94.50;;;;;;4982403;28;20211;-76
2021/04/23 10:58:27;;;;;;;0.63;0.60;;;20.30;95.00;;;;;;4991218;28;20159;-77
2021/04/23 11:01:01;;;;;;;28.40;2.00;;;19.90;95.30;;;;;;4989231;28;20171;-77
2021/04/23 11:03:32;;;;;;;1.13;1.02;;;19.70;94.70;;;;;;4989442;28;20159;-73
2021/04/23 11:05:59;;;;;;;0.50;0.50;;;19.90;95.70;;;;;;4990499;28;20210;-73
2021/04/23 11:08:27;;;;;;;0.30;0.30;;;20.20;95.50;;;;;;4990874;28;20178;-74
2021/04/23 11:11:02;;;;;;;9.75;1.88;;;20.90;94.60;;;;;;4990947;28;20163;-74
2021/04/23 11:13:31;;;;;;;0.60;0.60;;;21.70;93.70;;;;;;4991975;28;20222;-74
2021/04/23 11:16:22;;;;;;;1.35;0.75;;;21.40;94.00;;;;;;4991697;28;20187;-73
2021/04/23 11:19:15;;;;;;;0.98;0.98;;;21.40;93.90;;;;;;4991800;28;20201;-73
2021/04/23 11:21:42;;;;;;;0.38;0.38;;;21.90;94.50;;;;;;4991446;28;20249;-75
2021/04/23 11:24:28;;;;;;;0.65;0.65;;;22.90;92.80;;;;;;4992024;28;20626;-75
2021/04/23 11:29:36;;;;;;;0.63;0.63;;;22.00;92.40;;;;;;4991641;28;20184;-75
2021/04/23 11:32:18;;;;;;;2.33;0.88;;;20.90;93.50;;;;;;4991379;28;20162;-74
2021/04/23 11:34:54;;;;;;;3.72;1.90;;;20.30;94.00;;;;;;4990277;28;20185;-74
2021/04/23 11:37:22;;;;;;;2.20;2.00;;;21.30;95.40;;;;;;4991326;28;20200;-74
2021/04/23 11:39:55;;;;;;;1.23;1.15;;;22.30;92.50;;;;;;4990014;28;20202;-74
2021/04/23 11:42:26;;;;;;;1.00;0.80;;;22.60;94.20;;;;;;4990749;28;20201;-74
2021/04/23 11:45:03;;;;;;;0.30;0.30;;;22.40;93.20;;;;;;4989729;28;20171;-76
2021/04/23 11:47:45;;;;;;;1.30;1.30;;;22.80;91.30;;;;;;4974990;28;20199;-76
2021/04/23 11:50:13;;;;;;;1.17;0.80;;;23.20;91.90;;;;;;4971345;28;20187;-77
2021/04/23 11:52:42;;;;;;;1.55;0.73;;;22.80;92.50;;;;;;4971531;28;20167;-75
2021/04/23 11:55:16;;;;;;;11.95;1.63;;;22.50;92.00;;;;;;4977928;28;20237;-76
2021/04/23 11:57:45;;;;;;;0.95;0.95;;;21.70;90.60;;;;;;4990890;28;20253;-77
2021/04/23 12:00:12;;;;;;;0.17;0.17;;;21.20;91.20;;;;;;4990787;28;20155;-75
2021/04/23 12:02:52;;;;;;;0.47;0.47;;;21.90;90.70;;;;;;4989806;28;20182;-79
2021/04/23 12:05:32;;;;;;;0.50;0.50;;;21.80;91.20;;;;;;4991357;28;20261;-77
2021/04/23 12:08:02;;;;;;;0.85;0.75;;;21.40;90.50;;;;;;4990393;28;20208;-76
2021/04/23 12:10:30;;;;;;;0.70;0.70;;;21.30;90.70;;;;;;4988703;28;20210;-77
2021/04/23 12:12:56;;;;;;;0.63;0.38;;;21.70;90.00;;;;;;4990349;28;20230;-76
2021/04/23 12:15:31;;;;;;;2.83;0.75;;;20.90;90.30;;;;;;4988635;28;20225;-78
2021/04/23 12:18:00;;;;;;;1.35;1.08;;;20.50;90.90;;;;;;4990191;28;20163;-76
2021/04/23 12:20:30;;;;;;;0.17;0.17;;;19.60;92.90;;;;;;4990663;28;20291;-76
2021/04/23 12:22:59;;;;;;;0.52;0.52;;;19.10;92.30;;;;;;4980247;28;20188;-77
2021/04/23 12:25:30;;;;;;;0.57;0.52;;;18.80;93.10;;;;;;4983981;28;20230;-76
2021/04/23 12:28:23;;;;;;;0.77;0.77;;;18.60;92.00;;;;;;4984464;28;20186;-75
2021/04/23 12:30:56;;;;;;;0.65;0.28;;;18.50;94.80;;;;;;4990433;28;20179;-76
2021/04/23 12:33:22;;;;;;;0.95;0.93;;;18.50;94.50;;;;;;4977541;28;20242;-76
2021/04/23 12:35:51;;;;;;;0.95;0.95;;;18.30;91.80;;;;;;4978117;28;20552;-76
2021/04/23 12:38:38;;;;;;;1.48;0.63;;;18.10;92.20;;;;;;4971000;28;20172;-75
2021/04/23 12:41:17;;;;;;;0.30;0.30;;;18.20;93.00;;;;;;4983580;28;20183;-77
2021/04/23 12:43:43;;;;;;;0.13;0.13;;;18.30;90.80;;;;;;4970387;29;20375;-75
2021/04/23 12:46:26;;;;;;;1.10;1.00;;;18.00;91.60;;;;;;4970053;28;20416;-76
2021/04/23 12:49:16;;;;;;;0.20;0.20;;;17.80;93.30;;;;;;4970638;28;20168;-76
2021/04/23 12:51:46;;;;;;;0.20;0.20;;;18.10;92.30;;;;;;4970898;28;20631;-77
2021/04/23 12:54:13;;;;;;;0.82;0.70;;;18.20;94.20;;;;;;4969556;28;20168;-77
2021/04/23 12:56:40;;;;;;;1.30;0.98;;;18.60;91.70;;;;;;4988401;28;20207;-76
2021/04/23 12:59:07;;;;;;;0.50;0.50;;;18.40;91.50;;;;;;4987924;28;20168;-77
2021/04/23 13:01:33;;;;;;;1.05;0.50;;;18.30;92.80;;;;;;4989691;28;20152;-77
2021/04/23 13:04:07;;;;;;;0.28;0.28;;;18.20;95.60;;;;;;4989864;28;20148;-76